sensor_id;sensor_type;location;lat;lon;timestamp;P1;durP1;ratioP1;P2;durP2;ratioP2
74821;SDS011;63353;48.702;8.884;2023-08-06T00:01:57;12.50;;;11.60;;
74821;SDS011;63353;48.702;8.884;2023-08-06T00:04:23;12.20;;;11.40;;
74821;SDS011;63353;48.702;8.884;2023-08-06T00:06:48;12.30;;;11.60;;
74821;SDS011;63353;48.702;8.884;2023-08-06T00:09:14;12.60;;;11.80;;
74821;SDS011;63353;48.702;8.884;2023-08-06T00:11:39;12.83;;;11.83;;
74821;SDS011;63353;48.702;8.884;2023-08-06T00:14:09;12.60;;;11.53;;
74821;SDS011;63353;48.702;8.884;2023-08-06T00:16:38;12.53;;;11.83;;
74821;SDS011;63353;48.702;8.884;2023-08-06T00:19:06;15.07;;;14.17;;
74821;SDS011;63353;48.702;8.884;2023-08-06T00:21:32;12.90;;;12.10;;
74821;SDS011;63353;48.702;8.884;2023-08-06T00:24:07;17.97;;;17.00;;
74821;SDS011;63353;48.702;8.884;2023-08-06T00:26:32;20.30;;;19.10;;
74821;SDS011;63353;48.702;8.884;2023-08-06T00:29:01;18.90;;;17.80;;
74821;SDS011;63353;48.702;8.884;2023-08-06T00:31:33;16.10;;;15.20;;
74821;SDS011;63353;48.702;8.884;2023-08-06T00:33:58;12.93;;;12.13;;
74821;SDS011;63353;48.702;8.884;2023-08-06T00:36:30;15.40;;;14.47;;
74821;SDS011;63353;48.702;8.884;2023-08-06T00:38:56;12.80;;;12.00;;
74821;SDS011;63353;48.702;8.884;2023-08-06T00:41:33;10.63;;;9.83;;
74821;SDS011;63353;48.702;8.884;2023-08-06T00:43:59;13.17;;;12.37;;
74821;SDS011;63353;48.702;8.884;2023-08-06T00:46:24;13.90;;;13.00;;
74821;SDS011;63353;48.702;8.884;2023-08-06T00:48:51;11.07;;;10.10;;
74821;SDS011;63353;48.702;8.884;2023-08-06T00:51:17;13.33;;;12.33;;
74821;SDS011;63353;48.702;8.884;2023-08-06T00:53:52;13.67;;;12.80;;
74821;SDS011;63353;48.702;8.884;2023-08-06T00:56:32;14.30;;;13.30;;
74821;SDS011;63353;48.702;8.884;2023-08-06T00:59:00;15.30;;;14.50;;
74821;SDS011;63353;48.702;8.884;2023-08-06T01:01:29;13.13;;;12.23;;
74821;SDS011;63353;48.702;8.884;2023-08-06T01:03:58;15.70;;;14.80;;
74821;SDS011;63353;48.702;8.884;2023-08-06T01:07:29;14.00;;;13.00;;
74821;SDS011;63353;48.702;8.884;2023-08-06T01:15:49;11.20;;;10.30;;
74821;SDS011;63353;48.702;8.884;2023-08-06T01:18:20;11.07;;;10.20;;
74821;SDS011;63353;48.702;8.884;2023-08-06T01:20:52;13.77;;;12.80;;
74821;SDS011;63353;48.702;8.884;2023-08-06T01:23:18;11.30;;;10.60;;
74821;SDS011;63353;48.702;8.884;2023-08-06T01:31:11;12.83;;;12.13;;
74821;SDS011;63353;48.702;8.884;2023-08-06T01:33:43;11.20;;;10.40;;
74821;SDS011;63353;48.702;8.884;2023-08-06T01:36:12;11.97;;;11.17;;
74821;SDS011;63353;48.702;8.884;2023-08-06T01:38:40;11.73;;;10.73;;
74821;SDS011;63353;48.702;8.884;2023-08-06T01:41:18;12.30;;;11.50;;
74821;SDS011;63353;48.702;8.884;2023-08-06T01:43:44;11.83;;;10.90;;
74821;SDS011;63353;48.702;8.884;2023-08-06T01:46:09;10.50;;;9.47;;
74821;SDS011;63353;48.702;8.884;2023-08-06T01:48:41;11.47;;;10.73;;
74821;SDS011;63353;48.702;8.884;2023-08-06T01:51:07;10.73;;;10.03;;
74821;SDS011;63353;48.702;8.884;2023-08-06T01:53:42;13.13;;;12.23;;
74821;SDS011;63353;48.702;8.884;2023-08-06T01:56:08;10.97;;;10.27;;
74821;SDS011;63353;48.702;8.884;2023-08-06T01:58:33;9.80;;;9.07;;
74821;SDS011;63353;48.702;8.884;2023-08-06T02:00:59;10.07;;;9.43;;
74821;SDS011;63353;48.702;8.884;2023-08-06T02:03:29;10.63;;;9.90;;
74821;SDS011;63353;48.702;8.884;2023-08-06T02:05:55;10.63;;;9.93;;
74821;SDS011;63353;48.702;8.884;2023-08-06T02:08:24;9.17;;;8.37;;
74821;SDS011;63353;48.702;8.884;2023-08-06T02:10:49;13.43;;;12.57;;
74821;SDS011;63353;48.702;8.884;2023-08-06T02:13:15;9.77;;;8.93;;
74821;SDS011;63353;48.702;8.884;2023-08-06T02:15:44;8.77;;;8.03;;
74821;SDS011;63353;48.702;8.884;2023-08-06T02:18:12;13.80;;;12.97;;
74821;SDS011;63353;48.702;8.884;2023-08-06T02:23:43;9.03;;;8.33;;
74821;SDS011;63353;48.702;8.884;2023-08-06T02:26:18;9.37;;;8.67;;
74821;SDS011;63353;48.702;8.884;2023-08-06T02:28:50;8.77;;;8.10;;
74821;SDS011;63353;48.702;8.884;2023-08-06T02:31:18;8.60;;;8.00;;
74821;SDS011;63353;48.702;8.884;2023-08-06T02:33:50;14.23;;;13.40;;
74821;SDS011;63353;48.702;8.884;2023-08-06T02:36:22;10.13;;;9.43;;
74821;SDS011;63353;48.702;8.884;2023-08-06T02:38:54;11.37;;;10.67;;
74821;SDS011;63353;48.702;8.884;2023-08-06T02:41:20;10.97;;;10.27;;
74821;SDS011;63353;48.702;8.884;2023-08-06T02:43:45;11.27;;;10.57;;
74821;SDS011;63353;48.702;8.884;2023-08-06T02:46:14;9.43;;;8.83;;
74821;SDS011;63353;48.702;8.884;2023-08-06T02:48:40;8.77;;;8.13;;
74821;SDS011;63353;48.702;8.884;2023-08-06T02:51:08;13.70;;;12.67;;
74821;SDS011;63353;48.702;8.884;2023-08-06T02:53:34;8.33;;;7.83;;
74821;SDS011;63353;48.702;8.884;2023-08-06T02:56:11;8.90;;;8.30;;
74821;SDS011;63353;48.702;8.884;2023-08-06T02:58:37;7.60;;;7.00;;
74821;SDS011;63353;48.702;8.884;2023-08-06T03:01:03;8.43;;;7.90;;
74821;SDS011;63353;48.702;8.884;2023-08-06T03:03:30;9.73;;;9.03;;
74821;SDS011;63353;48.702;8.884;2023-08-06T03:05:56;10.23;;;9.63;;
74821;SDS011;63353;48.702;8.884;2023-08-06T03:08:25;8.93;;;8.30;;
74821;SDS011;63353;48.702;8.884;2023-08-06T03:10:57;7.23;;;6.60;;
74821;SDS011;63353;48.702;8.884;2023-08-06T03:13:32;8.50;;;7.90;;
74821;SDS011;63353;48.702;8.884;2023-08-06T03:15:58;7.70;;;7.10;;
74821;SDS011;63353;48.702;8.884;2023-08-06T03:18:30;8.33;;;7.83;;
74821;SDS011;63353;48.702;8.884;2023-08-06T03:20:59;8.70;;;8.03;;
74821;SDS011;63353;48.702;8.884;2023-08-06T03:23:27;8.63;;;7.73;;
74821;SDS011;63353;48.702;8.884;2023-08-06T03:25:53;7.27;;;6.80;;
74821;SDS011;63353;48.702;8.884;2023-08-06T03:28:19;9.17;;;8.67;;
74821;SDS011;63353;48.702;8.884;2023-08-06T03:30:44;7.70;;;7.20;;
74821;SDS011;63353;48.702;8.884;2023-08-06T03:33:13;7.30;;;6.60;;
74821;SDS011;63353;48.702;8.884;2023-08-06T03:35:39;7.33;;;6.73;;
74821;SDS011;63353;48.702;8.884;2023-08-06T03:38:05;7.90;;;7.27;;
74821;SDS011;63353;48.702;8.884;2023-08-06T03:40:39;7.20;;;6.70;;
74821;SDS011;63353;48.702;8.884;2023-08-06T03:43:05;10.50;;;9.50;;
74821;SDS011;63353;48.702;8.884;2023-08-06T03:45:33;9.27;;;8.17;;
74821;SDS011;63353;48.702;8.884;2023-08-06T03:47:59;7.17;;;6.57;;
74821;SDS011;63353;48.702;8.884;2023-08-06T03:50:25;7.33;;;6.73;;
74821;SDS011;63353;48.702;8.884;2023-08-06T03:52:54;8.07;;;7.37;;
74821;SDS011;63353;48.702;8.884;2023-08-06T03:55:25;7.70;;;7.00;;
74821;SDS011;63353;48.702;8.884;2023-08-06T03:57:54;8.53;;;7.97;;
74821;SDS011;63353;48.702;8.884;2023-08-06T04:00:23;8.20;;;7.27;;
74821;SDS011;63353;48.702;8.884;2023-08-06T04:02:55;7.70;;;7.20;;
74821;SDS011;63353;48.702;8.884;2023-08-06T04:05:26;8.17;;;7.57;;
74821;SDS011;63353;48.702;8.884;2023-08-06T04:08:04;7.97;;;7.47;;
74821;SDS011;63353;48.702;8.884;2023-08-06T04:10:30;8.60;;;7.93;;
74821;SDS011;63353;48.702;8.884;2023-08-06T04:12:59;8.87;;;8.27;;
74821;SDS011;63353;48.702;8.884;2023-08-06T04:15:27;8.63;;;8.10;;
74821;SDS011;63353;48.702;8.884;2023-08-06T04:17:53;7.93;;;7.53;;
74821;SDS011;63353;48.702;8.884;2023-08-06T04:20:25;10.27;;;9.73;;
74821;SDS011;63353;48.702;8.884;2023-08-06T04:22:54;11.30;;;10.47;;
74821;SDS011;63353;48.702;8.884;2023-08-06T04:25:20;8.03;;;7.50;;
74821;SDS011;63353;48.702;8.884;2023-08-06T04:27:49;19.57;;;18.63;;
74821;SDS011;63353;48.702;8.884;2023-08-06T04:30:15;26.63;;;25.30;;
74821;SDS011;63353;48.702;8.884;2023-08-06T04:32:44;24.57;;;23.37;;
74821;SDS011;63353;48.702;8.884;2023-08-06T04:35:09;16.23;;;15.47;;
74821;SDS011;63353;48.702;8.884;2023-08-06T04:37:35;26.70;;;25.57;;
74821;SDS011;63353;48.702;8.884;2023-08-06T04:40:04;23.73;;;22.67;;
74821;SDS011;63353;48.702;8.884;2023-08-06T04:42:31;29.27;;;27.97;;
74821;SDS011;63353;48.702;8.884;2023-08-06T04:45:01;32.53;;;31.03;;
74821;SDS011;63353;48.702;8.884;2023-08-06T04:47:27;28.80;;;27.40;;
74821;SDS011;63353;48.702;8.884;2023-08-06T04:49:53;33.90;;;32.37;;
74821;SDS011;63353;48.702;8.884;2023-08-06T04:52:19;29.93;;;28.50;;
74821;SDS011;63353;48.702;8.884;2023-08-06T04:54:57;22.27;;;21.40;;
74821;SDS011;63353;48.702;8.884;2023-08-06T04:57:25;20.83;;;20.00;;
74821;SDS011;63353;48.702;8.884;2023-08-06T04:59:51;18.00;;;17.07;;
74821;SDS011;63353;48.702;8.884;2023-08-06T05:02:22;14.20;;;13.63;;
74821;SDS011;63353;48.702;8.884;2023-08-06T05:05:07;12.83;;;12.37;;
74821;SDS011;63353;48.702;8.884;2023-08-06T05:07:35;8.37;;;8.00;;
74821;SDS011;63353;48.702;8.884;2023-08-06T05:10:01;4.20;;;4.00;;
74821;SDS011;63353;48.702;8.884;2023-08-06T05:12:40;6.33;;;5.93;;
74821;SDS011;63353;48.702;8.884;2023-08-06T05:15:06;5.63;;;5.20;;
74821;SDS011;63353;48.702;8.884;2023-08-06T05:17:35;19.77;;;18.87;;
74821;SDS011;63353;48.702;8.884;2023-08-06T05:20:06;6.07;;;5.77;;
74821;SDS011;63353;48.702;8.884;2023-08-06T05:22:32;4.77;;;4.53;;
74821;SDS011;63353;48.702;8.884;2023-08-06T05:25:07;5.60;;;5.40;;
74821;SDS011;63353;48.702;8.884;2023-08-06T05:27:36;4.90;;;4.67;;
74821;SDS011;63353;48.702;8.884;2023-08-06T05:30:08;6.43;;;6.03;;
74821;SDS011;63353;48.702;8.884;2023-08-06T05:32:35;6.57;;;6.30;;
74821;SDS011;63353;48.702;8.884;2023-08-06T05:35:01;6.33;;;6.03;;
74821;SDS011;63353;48.702;8.884;2023-08-06T05:37:29;6.37;;;6.07;;
74821;SDS011;63353;48.702;8.884;2023-08-06T05:40:04;7.57;;;7.37;;
74821;SDS011;63353;48.702;8.884;2023-08-06T05:42:36;9.60;;;9.20;;
74821;SDS011;63353;48.702;8.884;2023-08-06T05:45:02;5.33;;;5.13;;
74821;SDS011;63353;48.702;8.884;2023-08-06T05:47:28;8.97;;;8.60;;
74821;SDS011;63353;48.702;8.884;2023-08-06T05:50:00;9.20;;;8.80;;
74821;SDS011;63353;48.702;8.884;2023-08-06T05:52:25;7.33;;;7.13;;
74821;SDS011;63353;48.702;8.884;2023-08-06T05:54:57;6.73;;;6.37;;
74821;SDS011;63353;48.702;8.884;2023-08-06T05:57:23;6.57;;;6.17;;
74821;SDS011;63353;48.702;8.884;2023-08-06T05:59:48;6.00;;;5.77;;
74821;SDS011;63353;48.702;8.884;2023-08-06T06:02:20;6.83;;;6.53;;
74821;SDS011;63353;48.702;8.884;2023-08-06T06:04:49;5.97;;;5.77;;
74821;SDS011;63353;48.702;8.884;2023-08-06T06:07:23;7.33;;;7.13;;
74821;SDS011;63353;48.702;8.884;2023-08-06T06:09:49;6.93;;;6.73;;
74821;SDS011;63353;48.702;8.884;2023-08-06T06:12:14;7.80;;;7.50;;
74821;SDS011;63353;48.702;8.884;2023-08-06T06:14:49;7.47;;;7.20;;
74821;SDS011;63353;48.702;8.884;2023-08-06T06:17:15;5.30;;;5.20;;
74821;SDS011;63353;48.702;8.884;2023-08-06T06:19:40;5.37;;;4.93;;
74821;SDS011;63353;48.702;8.884;2023-08-06T06:22:09;5.13;;;4.93;;
74821;SDS011;63353;48.702;8.884;2023-08-06T06:24:38;8.00;;;7.80;;
74821;SDS011;63353;48.702;8.884;2023-08-06T06:27:03;5.20;;;5.07;;
74821;SDS011;63353;48.702;8.884;2023-08-06T06:29:29;10.43;;;10.03;;
74821;SDS011;63353;48.702;8.884;2023-08-06T06:32:01;5.27;;;5.07;;
74821;SDS011;63353;48.702;8.884;2023-08-06T06:34:29;7.43;;;7.20;;
74821;SDS011;63353;48.702;8.884;2023-08-06T06:36:55;10.87;;;10.57;;
74821;SDS011;63353;48.702;8.884;2023-08-06T06:39:21;7.97;;;7.63;;
74821;SDS011;63353;48.702;8.884;2023-08-06T06:41:49;5.83;;;5.63;;
74821;SDS011;63353;48.702;8.884;2023-08-06T06:44:27;3.70;;;3.50;;
74821;SDS011;63353;48.702;8.884;2023-08-06T06:46:52;5.30;;;5.20;;
74821;SDS011;63353;48.702;8.884;2023-08-06T06:49:24;4.80;;;4.70;;
74821;SDS011;63353;48.702;8.884;2023-08-06T06:51:50;4.50;;;4.30;;
74821;SDS011;63353;48.702;8.884;2023-08-06T06:54:16;5.33;;;5.23;;
74821;SDS011;63353;48.702;8.884;2023-08-06T06:56:41;5.40;;;5.20;;
74821;SDS011;63353;48.702;8.884;2023-08-06T06:59:10;7.10;;;6.90;;
74821;SDS011;63353;48.702;8.884;2023-08-06T07:01:42;4.87;;;4.57;;
74821;SDS011;63353;48.702;8.884;2023-08-06T07:04:10;4.90;;;4.80;;
74821;SDS011;63353;48.702;8.884;2023-08-06T07:06:42;4.30;;;4.20;;
74821;SDS011;63353;48.702;8.884;2023-08-06T07:09:08;7.63;;;7.43;;
74821;SDS011;63353;48.702;8.884;2023-08-06T07:11:42;4.07;;;3.97;;
74821;SDS011;63353;48.702;8.884;2023-08-06T07:14:16;4.67;;;4.57;;
74821;SDS011;63353;48.702;8.884;2023-08-06T07:16:42;4.50;;;4.40;;
74821;SDS011;63353;48.702;8.884;2023-08-06T07:19:08;4.17;;;4.07;;
74821;SDS011;63353;48.702;8.884;2023-08-06T07:21:33;4.00;;;3.90;;
74821;SDS011;63353;48.702;8.884;2023-08-06T07:24:08;4.53;;;4.43;;
74821;SDS011;63353;48.702;8.884;2023-08-06T07:26:34;5.07;;;4.87;;
74821;SDS011;63353;48.702;8.884;2023-08-06T07:29:02;4.43;;;4.33;;
74821;SDS011;63353;48.702;8.884;2023-08-06T07:31:31;4.20;;;4.10;;
74821;SDS011;63353;48.702;8.884;2023-08-06T07:33:56;5.00;;;4.90;;
74821;SDS011;63353;48.702;8.884;2023-08-06T07:36:28;4.33;;;4.23;;
74821;SDS011;63353;48.702;8.884;2023-08-06T07:38:56;4.87;;;4.77;;
74821;SDS011;63353;48.702;8.884;2023-08-06T07:41:22;4.50;;;4.40;;
74821;SDS011;63353;48.702;8.884;2023-08-06T07:43:48;7.07;;;6.87;;
74821;SDS011;63353;48.702;8.884;2023-08-06T07:46:20;3.93;;;3.83;;
74821;SDS011;63353;48.702;8.884;2023-08-06T07:48:52;18.43;;;17.83;;
74821;SDS011;63353;48.702;8.884;2023-08-06T07:51:23;15.20;;;14.73;;
74821;SDS011;63353;48.702;8.884;2023-08-06T07:53:58;3.73;;;3.63;;
74821;SDS011;63353;48.702;8.884;2023-08-06T07:56:29;5.23;;;5.03;;
74821;SDS011;63353;48.702;8.884;2023-08-06T07:58:55;4.13;;;4.03;;
74821;SDS011;63353;48.702;8.884;2023-08-06T08:01:21;3.97;;;3.87;;
74821;SDS011;63353;48.702;8.884;2023-08-06T08:03:49;4.60;;;4.50;;
74821;SDS011;63353;48.702;8.884;2023-08-06T08:06:15;5.00;;;4.80;;
74821;SDS011;63353;48.702;8.884;2023-08-06T08:08:44;4.13;;;3.93;;
74821;SDS011;63353;48.702;8.884;2023-08-06T08:11:20;4.57;;;4.47;;
74821;SDS011;63353;48.702;8.884;2023-08-06T08:13:48;4.80;;;4.70;;
74821;SDS011;63353;48.702;8.884;2023-08-06T08:16:14;4.40;;;4.20;;
74821;SDS011;63353;48.702;8.884;2023-08-06T08:18:40;4.23;;;4.13;;
74821;SDS011;63353;48.702;8.884;2023-08-06T08:21:08;4.63;;;4.53;;
74821;SDS011;63353;48.702;8.884;2023-08-06T08:23:37;4.60;;;4.50;;
74821;SDS011;63353;48.702;8.884;2023-08-06T08:26:04;5.03;;;4.90;;
74821;SDS011;63353;48.702;8.884;2023-08-06T08:28:35;5.17;;;4.97;;
74821;SDS011;63353;48.702;8.884;2023-08-06T08:31:07;5.63;;;5.43;;
74821;SDS011;63353;48.702;8.884;2023-08-06T08:33:34;4.13;;;4.03;;
74821;SDS011;63353;48.702;8.884;2023-08-06T08:35:59;4.50;;;4.40;;
74821;SDS011;63353;48.702;8.884;2023-08-06T08:38:31;6.10;;;5.97;;
74821;SDS011;63353;48.702;8.884;2023-08-06T08:40:57;5.20;;;5.10;;
74821;SDS011;63353;48.702;8.884;2023-08-06T08:43:38;4.40;;;4.30;;
74821;SDS011;63353;48.702;8.884;2023-08-06T08:46:20;4.80;;;4.60;;
74821;SDS011;63353;48.702;8.884;2023-08-06T08:49:05;5.03;;;4.93;;
74821;SDS011;63353;48.702;8.884;2023-08-06T08:51:40;6.03;;;5.83;;
74821;SDS011;63353;48.702;8.884;2023-08-06T08:54:12;5.10;;;5.00;;
74821;SDS011;63353;48.702;8.884;2023-08-06T08:56:39;4.80;;;4.70;;
74821;SDS011;63353;48.702;8.884;2023-08-06T08:59:09;4.47;;;4.37;;
74821;SDS011;63353;48.702;8.884;2023-08-06T09:01:38;5.63;;;5.40;;
74821;SDS011;63353;48.702;8.884;2023-08-06T09:04:07;5.03;;;4.93;;
74821;SDS011;63353;48.702;8.884;2023-08-06T09:06:35;4.27;;;4.17;;
74821;SDS011;63353;48.702;8.884;2023-08-06T09:09:06;4.57;;;4.30;;
74821;SDS011;63353;48.702;8.884;2023-08-06T09:11:43;6.60;;;6.50;;
74821;SDS011;63353;48.702;8.884;2023-08-06T09:14:09;5.00;;;4.90;;
74821;SDS011;63353;48.702;8.884;2023-08-06T09:16:36;6.43;;;6.33;;
74821;SDS011;63353;48.702;8.884;2023-08-06T09:19:08;3.87;;;3.87;;
74821;SDS011;63353;48.702;8.884;2023-08-06T09:21:50;4.73;;;4.63;;
74821;SDS011;63353;48.702;8.884;2023-08-06T09:24:16;3.80;;;3.80;;
74821;SDS011;63353;48.702;8.884;2023-08-06T09:26:48;5.73;;;5.63;;
74821;SDS011;63353;48.702;8.884;2023-08-06T09:29:14;4.10;;;4.00;;
74821;SDS011;63353;48.702;8.884;2023-08-06T09:31:52;6.13;;;6.03;;
74821;SDS011;63353;48.702;8.884;2023-08-06T09:34:19;11.37;;;11.07;;
74821;SDS011;63353;48.702;8.884;2023-08-06T09:36:52;12.13;;;11.73;;
74821;SDS011;63353;48.702;8.884;2023-08-06T09:39:27;19.97;;;19.33;;
74821;SDS011;63353;48.702;8.884;2023-08-06T09:42:06;5.57;;;5.37;;
74821;SDS011;63353;48.702;8.884;2023-08-06T09:44:32;3.90;;;3.80;;
74821;SDS011;63353;48.702;8.884;2023-08-06T09:46:59;4.60;;;4.50;;
74821;SDS011;63353;48.702;8.884;2023-08-06T09:51:58;4.80;;;4.70;;
74821;SDS011;63353;48.702;8.884;2023-08-06T09:54:25;4.10;;;4.00;;
74821;SDS011;63353;48.702;8.884;2023-08-06T09:56:55;3.90;;;3.80;;
74821;SDS011;63353;48.702;8.884;2023-08-06T09:59:25;4.17;;;4.07;;
74821;SDS011;63353;48.702;8.884;2023-08-06T10:01:51;4.63;;;4.53;;
74821;SDS011;63353;48.702;8.884;2023-08-06T10:04:26;5.13;;;5.03;;
74821;SDS011;63353;48.702;8.884;2023-08-06T10:06:54;3.93;;;3.83;;
74821;SDS011;63353;48.702;8.884;2023-08-06T10:09:20;5.90;;;5.67;;
74821;SDS011;63353;48.702;8.884;2023-08-06T10:11:55;5.07;;;4.97;;
74821;SDS011;63353;48.702;8.884;2023-08-06T10:14:26;4.00;;;3.97;;
74821;SDS011;63353;48.702;8.884;2023-08-06T10:16:59;5.93;;;5.83;;
74821;SDS011;63353;48.702;8.884;2023-08-06T10:19:28;6.20;;;6.00;;
74821;SDS011;63353;48.702;8.884;2023-08-06T10:22:14;6.87;;;6.70;;
74821;SDS011;63353;48.702;8.884;2023-08-06T10:27:34;6.73;;;6.10;;
74821;SDS011;63353;48.702;8.884;2023-08-06T10:33:01;5.00;;;4.80;;
74821;SDS011;63353;48.702;8.884;2023-08-06T10:38:20;4.80;;;4.70;;
74821;SDS011;63353;48.702;8.884;2023-08-06T10:45:55;9.33;;;8.90;;
74821;SDS011;63353;48.702;8.884;2023-08-06T10:51:13;4.90;;;4.67;;
74821;SDS011;63353;48.702;8.884;2023-08-06T10:53:55;5.17;;;5.07;;
74821;SDS011;63353;48.702;8.884;2023-08-06T10:56:39;4.70;;;4.60;;
74821;SDS011;63353;48.702;8.884;2023-08-06T10:59:06;5.33;;;5.23;;
74821;SDS011;63353;48.702;8.884;2023-08-06T11:01:31;5.87;;;5.67;;
74821;SDS011;63353;48.702;8.884;2023-08-06T11:04:01;5.97;;;5.87;;
74821;SDS011;63353;48.702;8.884;2023-08-06T11:06:31;6.57;;;6.37;;
74821;SDS011;63353;48.702;8.884;2023-08-06T11:08:56;8.27;;;7.97;;
74821;SDS011;63353;48.702;8.884;2023-08-06T11:11:25;6.27;;;6.07;;
74821;SDS011;63353;48.702;8.884;2023-08-06T11:13:51;13.07;;;12.57;;
74821;SDS011;63353;48.702;8.884;2023-08-06T11:16:17;7.10;;;6.80;;
74821;SDS011;63353;48.702;8.884;2023-08-06T11:18:48;8.77;;;8.17;;
74821;SDS011;63353;48.702;8.884;2023-08-06T11:21:23;6.40;;;6.20;;
74821;SDS011;63353;48.702;8.884;2023-08-06T11:24:00;7.50;;;7.20;;
74821;SDS011;63353;48.702;8.884;2023-08-06T11:26:28;14.37;;;13.47;;
74821;SDS011;63353;48.702;8.884;2023-08-06T11:28:57;18.73;;;17.23;;
74821;SDS011;63353;48.702;8.884;2023-08-06T11:31:23;12.03;;;11.43;;
74821;SDS011;63353;48.702;8.884;2023-08-06T11:33:52;8.13;;;7.83;;
74821;SDS011;63353;48.702;8.884;2023-08-06T11:36:31;12.60;;;12.10;;
74821;SDS011;63353;48.702;8.884;2023-08-06T11:38:58;16.63;;;16.03;;
74821;SDS011;63353;48.702;8.884;2023-08-06T11:41:28;23.83;;;22.87;;
74821;SDS011;63353;48.702;8.884;2023-08-06T11:43:55;20.20;;;19.50;;
74821;SDS011;63353;48.702;8.884;2023-08-06T11:46:23;22.90;;;22.00;;
74821;SDS011;63353;48.702;8.884;2023-08-06T11:48:59;27.40;;;26.40;;
74821;SDS011;63353;48.702;8.884;2023-08-06T11:51:34;29.80;;;28.73;;
74821;SDS011;63353;48.702;8.884;2023-08-06T11:54:02;27.90;;;26.90;;
74821;SDS011;63353;48.702;8.884;2023-08-06T11:56:31;27.97;;;26.97;;
74821;SDS011;63353;48.702;8.884;2023-08-06T11:59:00;27.67;;;26.67;;
74821;SDS011;63353;48.702;8.884;2023-08-06T12:01:29;30.23;;;29.13;;
74821;SDS011;63353;48.702;8.884;2023-08-06T12:04:04;33.50;;;32.30;;
74821;SDS011;63353;48.702;8.884;2023-08-06T12:06:42;34.77;;;33.47;;
74821;SDS011;63353;48.702;8.884;2023-08-06T12:09:08;27.30;;;26.30;;
74821;SDS011;63353;48.702;8.884;2023-08-06T12:11:37;22.27;;;21.47;;
74821;SDS011;63353;48.702;8.884;2023-08-06T12:14:06;10.20;;;9.90;;
74821;SDS011;63353;48.702;8.884;2023-08-06T12:16:49;16.10;;;15.57;;
74821;SDS011;63353;48.702;8.884;2023-08-06T12:19:15;19.67;;;18.97;;
74821;SDS011;63353;48.702;8.884;2023-08-06T12:21:40;33.27;;;31.97;;
74821;SDS011;63353;48.702;8.884;2023-08-06T12:24:09;28.07;;;26.93;;
74821;SDS011;63353;48.702;8.884;2023-08-06T12:26:35;27.23;;;26.23;;
74821;SDS011;63353;48.702;8.884;2023-08-06T12:29:04;23.07;;;22.27;;
74821;SDS011;63353;48.702;8.884;2023-08-06T12:31:29;19.73;;;19.03;;
74821;SDS011;63353;48.702;8.884;2023-08-06T12:33:55;18.90;;;18.20;;
74821;SDS011;63353;48.702;8.884;2023-08-06T12:36:20;10.37;;;9.97;;
74821;SDS011;63353;48.702;8.884;2023-08-06T12:38:49;9.37;;;9.07;;
74821;SDS011;63353;48.702;8.884;2023-08-06T12:41:15;17.53;;;16.90;;
74821;SDS011;63353;48.702;8.884;2023-08-06T12:43:41;10.30;;;9.90;;
74821;SDS011;63353;48.702;8.884;2023-08-06T12:46:09;8.07;;;7.77;;
74821;SDS011;63353;48.702;8.884;2023-08-06T12:48:35;13.33;;;12.83;;
74821;SDS011;63353;48.702;8.884;2023-08-06T12:51:04;35.57;;;34.17;;
74821;SDS011;63353;48.702;8.884;2023-08-06T12:53:29;27.57;;;26.57;;
74821;SDS011;63353;48.702;8.884;2023-08-06T12:55:58;36.50;;;34.90;;
74821;SDS011;63353;48.702;8.884;2023-08-06T12:58:23;31.37;;;30.17;;
74821;SDS011;63353;48.702;8.884;2023-08-06T13:00:52;30.93;;;29.80;;
74821;SDS011;63353;48.702;8.884;2023-08-06T13:03:36;32.77;;;31.57;;
74821;SDS011;63353;48.702;8.884;2023-08-06T13:06:02;29.93;;;28.83;;
74821;SDS011;63353;48.702;8.884;2023-08-06T13:08:27;14.97;;;14.47;;
74821;SDS011;63353;48.702;8.884;2023-08-06T13:10:56;14.77;;;13.90;;
74821;SDS011;63353;48.702;8.884;2023-08-06T13:13:34;6.50;;;6.30;;
74821;SDS011;63353;48.702;8.884;2023-08-06T13:16:03;5.53;;;5.33;;
74821;SDS011;63353;48.702;8.884;2023-08-06T13:18:31;5.87;;;5.67;;
74821;SDS011;63353;48.702;8.884;2023-08-06T13:20:57;7.40;;;7.20;;
74821;SDS011;63353;48.702;8.884;2023-08-06T13:23:23;9.23;;;8.93;;
74821;SDS011;63353;48.702;8.884;2023-08-06T13:25:53;5.90;;;5.70;;
74821;SDS011;63353;48.702;8.884;2023-08-06T13:28:21;6.47;;;6.27;;
74821;SDS011;63353;48.702;8.884;2023-08-06T13:30:56;6.77;;;6.37;;
74821;SDS011;63353;48.702;8.884;2023-08-06T13:33:22;5.63;;;5.40;;
74821;SDS011;63353;48.702;8.884;2023-08-06T13:35:47;5.93;;;5.73;;
74821;SDS011;63353;48.702;8.884;2023-08-06T13:38:23;9.13;;;8.63;;
74821;SDS011;63353;48.702;8.884;2023-08-06T13:40:49;8.97;;;8.57;;
74821;SDS011;63353;48.702;8.884;2023-08-06T13:43:14;9.67;;;9.27;;
74821;SDS011;63353;48.702;8.884;2023-08-06T13:45:47;9.57;;;9.27;;
74821;SDS011;63353;48.702;8.884;2023-08-06T13:48:13;15.27;;;14.57;;
74821;SDS011;63353;48.702;8.884;2023-08-06T13:50:42;14.77;;;14.27;;
74821;SDS011;63353;48.702;8.884;2023-08-06T13:53:11;14.10;;;13.40;;
74821;SDS011;63353;48.702;8.884;2023-08-06T13:55:45;10.70;;;10.33;;
74821;SDS011;63353;48.702;8.884;2023-08-06T13:58:17;7.10;;;6.90;;
74821;SDS011;63353;48.702;8.884;2023-08-06T14:00:43;10.90;;;10.50;;
74821;SDS011;63353;48.702;8.884;2023-08-06T14:03:27;12.10;;;11.70;;
74821;SDS011;63353;48.702;8.884;2023-08-06T14:06:01;14.97;;;14.37;;
74821;SDS011;63353;48.702;8.884;2023-08-06T14:08:33;9.83;;;9.47;;
74821;SDS011;63353;48.702;8.884;2023-08-06T14:11:17;13.07;;;12.63;;
74821;SDS011;63353;48.702;8.884;2023-08-06T14:13:52;10.67;;;10.27;;
74821;SDS011;63353;48.702;8.884;2023-08-06T14:16:28;8.07;;;7.73;;
74821;SDS011;63353;48.702;8.884;2023-08-06T14:19:03;6.30;;;6.00;;
74821;SDS011;63353;48.702;8.884;2023-08-06T14:21:28;10.40;;;9.97;;
74821;SDS011;63353;48.702;8.884;2023-08-06T14:24:13;16.20;;;15.33;;
74821;SDS011;63353;48.702;8.884;2023-08-06T14:26:38;11.07;;;10.67;;
74821;SDS011;63353;48.702;8.884;2023-08-06T14:29:10;18.00;;;17.33;;
74821;SDS011;63353;48.702;8.884;2023-08-06T14:31:42;16.73;;;16.10;;
74821;SDS011;63353;48.702;8.884;2023-08-06T14:34:11;21.20;;;20.20;;
74821;SDS011;63353;48.702;8.884;2023-08-06T14:36:42;20.10;;;19.30;;
74821;SDS011;63353;48.702;8.884;2023-08-06T14:39:07;22.90;;;22.10;;
74821;SDS011;63353;48.702;8.884;2023-08-06T14:41:45;8.57;;;8.27;;
74821;SDS011;63353;48.702;8.884;2023-08-06T14:44:16;6.73;;;6.33;;
74821;SDS011;63353;48.702;8.884;2023-08-06T14:46:42;9.73;;;9.37;;
74821;SDS011;63353;48.702;8.884;2023-08-06T14:49:08;8.87;;;8.47;;
74821;SDS011;63353;48.702;8.884;2023-08-06T14:51:33;9.47;;;9.17;;
74821;SDS011;63353;48.702;8.884;2023-08-06T14:53:59;8.57;;;8.27;;
74821;SDS011;63353;48.702;8.884;2023-08-06T14:56:24;7.43;;;7.23;;
74821;SDS011;63353;48.702;8.884;2023-08-06T14:58:50;26.53;;;25.60;;
74821;SDS011;63353;48.702;8.884;2023-08-06T15:01:22;7.33;;;7.13;;
74821;SDS011;63353;48.702;8.884;2023-08-06T15:03:50;27.60;;;26.40;;
74821;SDS011;63353;48.702;8.884;2023-08-06T15:06:19;26.33;;;25.27;;
74821;SDS011;63353;48.702;8.884;2023-08-06T15:08:48;19.07;;;18.37;;
74821;SDS011;63353;48.702;8.884;2023-08-06T15:11:14;16.17;;;15.60;;
74821;SDS011;63353;48.702;8.884;2023-08-06T15:13:42;18.53;;;17.83;;
74821;SDS011;63353;48.702;8.884;2023-08-06T15:16:08;20.70;;;19.93;;
74821;SDS011;63353;48.702;8.884;2023-08-06T15:18:33;7.53;;;7.33;;
74821;SDS011;63353;48.702;8.884;2023-08-06T15:21:03;12.70;;;12.23;;
74821;SDS011;63353;48.702;8.884;2023-08-06T15:23:31;15.93;;;15.37;;
74821;SDS011;63353;48.702;8.884;2023-08-06T15:26:12;30.30;;;29.20;;